KLWA

South Haven Area Regional Airport

South Haven, Michigan, USA
METAR KLWA 230755Z AUTO 12008KT 10SM OVC010 03/01 A3026 RMK AO2 T00300009
Observed Flight Rules
Feb-23 @ 07:55 UTC (16 minutes ago) Marginal Visual Flight Rules
Wind Visibility Clouds
120° at 8 knots 10 miles
  • Overcast at 1,000' AGL
Temperatures Readings
Current 3°C / 37°F
Dewpoint 1°C / 34°F
Humidity 87%
Altimeter 30.26" Hg
Pressure 1025 hPa
Elevation 203
METAR KLWA 230755Z AUTO 12008KT 10SM OVC010 03/01 A3026 RMK AO2 T00300009
Observed Flight Rules
Feb-23 @ 07:55 UTC
(16 minutes ago)
MVFR
Wind Visibility
120° at 8 knots 10 miles
Clouds
  • Overcast at 1,000' AGL
Temperature Dewpoint
3°C / 37°F 1°C / 34°F
Humidity Altimeter Pressure
87% 30.26" Hg 1025 hPa